createdAt,value
2018-06-09T00:01:23.673Z,97.68
2018-06-09T00:03:52.767Z,97.88
2018-06-09T00:06:21.862Z,98.01
2018-06-09T00:08:50.994Z,98.76
2018-06-09T00:11:20.070Z,98.82
2018-06-09T00:13:49.198Z,99.38
2018-06-09T00:16:18.286Z,99.52
2018-06-09T00:18:47.459Z,99.56
2018-06-09T00:21:16.627Z,99.28
2018-06-09T00:23:45.800Z,99.27
2018-06-09T00:26:14.904Z,99.92
2018-06-09T00:28:44.088Z,99.29
2018-06-09T00:31:13.186Z,99.83
2018-06-09T00:33:42.317Z,100.00
2018-06-09T00:36:11.461Z,100.00
2018-06-09T00:38:40.605Z,100.00
2018-06-09T00:41:09.733Z,100.00
2018-06-09T00:43:38.894Z,100.00
2018-06-09T00:46:08.201Z,100.00
2018-06-09T00:48:37.324Z,100.00
2018-06-09T00:51:06.415Z,99.42
2018-06-09T00:53:35.615Z,99.44
2018-06-09T00:56:16.093Z,100.00
2018-06-09T00:58:45.274Z,100.00
2018-06-09T01:01:14.422Z,100.00
2018-06-09T01:03:43.620Z,100.00
2018-06-09T01:06:12.722Z,100.00
2018-06-09T01:08:41.932Z,100.00
2018-06-09T01:11:11.061Z,100.00
2018-06-09T01:13:40.330Z,100.00
2018-06-09T01:16:09.492Z,100.00
2018-06-09T01:18:38.591Z,99.45
2018-06-09T01:21:07.713Z,100.00
2018-06-09T01:23:36.850Z,100.00
2018-06-09T01:26:06.206Z,100.00
2018-06-09T01:28:35.351Z,100.00
2018-06-09T01:31:04.431Z,100.00
2018-06-09T01:33:33.546Z,100.00
2018-06-09T01:36:02.655Z,99.71
2018-06-09T01:38:32.023Z,100.00
2018-06-09T01:41:01.152Z,99.53
2018-06-09T01:43:30.236Z,100.00
2018-06-09T01:45:59.411Z,100.00
2018-06-09T01:48:28.559Z,100.00
2018-06-09T01:50:57.691Z,99.36
2018-06-09T01:53:26.792Z,99.73
2018-06-09T01:55:55.922Z,99.78
2018-06-09T01:58:25.034Z,99.90
2018-06-09T02:00:54.184Z,99.69
2018-06-09T02:03:23.287Z,99.68
2018-06-09T02:05:52.600Z,100.00
2018-06-09T02:08:21.726Z,99.78
2018-06-09T02:10:50.940Z,99.77
2018-06-09T02:13:20.250Z,99.38
2018-06-09T02:15:49.457Z,99.16
2018-06-09T02:18:18.580Z,98.33
2018-06-09T02:20:47.794Z,98.29
2018-06-09T02:23:16.935Z,99.18
2018-06-09T02:25:46.071Z,98.16
2018-06-09T02:28:30.536Z,98.09
2018-06-09T02:31:17.083Z,98.22
2018-06-09T02:33:46.287Z,97.74
2018-06-09T02:36:15.438Z,98.08
2018-06-09T02:38:44.577Z,98.47
2018-06-09T02:41:13.675Z,98.87
2018-06-09T02:43:42.786Z,99.40
2018-06-09T02:46:12.008Z,98.47
2018-06-09T02:48:41.159Z,98.64
2018-06-09T02:51:10.270Z,99.15
2018-06-09T02:53:39.432Z,99.52
2018-06-09T02:56:08.543Z,99.59
2018-06-09T02:58:37.844Z,99.92
2018-06-09T03:01:07.020Z,99.62
2018-06-09T03:03:36.148Z,100.00
2018-06-09T03:06:05.336Z,100.00
2018-06-09T03:08:34.495Z,100.00
2018-06-09T03:11:03.624Z,100.00
2018-06-09T03:13:32.925Z,100.00
2018-06-09T03:16:02.046Z,99.87
2018-06-09T03:18:31.221Z,99.87
2018-06-09T03:21:00.322Z,100.00
2018-06-09T03:23:29.501Z,99.93
2018-06-09T03:25:58.716Z,100.00
2018-06-09T03:28:27.842Z,100.00
2018-06-09T03:30:56.963Z,100.00
2018-06-09T03:33:26.054Z,99.77
2018-06-09T03:35:55.191Z,99.69
2018-06-09T03:38:24.284Z,100.00
2018-06-09T03:40:53.499Z,99.69
2018-06-09T03:43:39.540Z,99.42
2018-06-09T03:46:11.507Z,99.81
2018-06-09T03:48:40.662Z,100.00
2018-06-09T03:51:09.772Z,99.73
2018-06-09T03:53:38.923Z,99.72
2018-06-09T03:56:08.329Z,99.63
2018-06-09T03:58:37.447Z,99.55
2018-06-09T04:01:06.852Z,99.14
2018-06-09T04:03:35.950Z,100.00
2018-06-09T04:06:05.137Z,99.05
2018-06-09T04:08:34.257Z,100.00
2018-06-09T04:11:03.365Z,100.00
2018-06-09T04:13:32.446Z,100.00
2018-06-09T04:16:02.622Z,99.80
2018-06-09T04:18:31.752Z,99.13
2018-06-09T04:21:00.890Z,98.74
2018-06-09T04:23:30.061Z,99.16
2018-06-09T04:25:59.209Z,98.82
2018-06-09T04:28:28.370Z,99.17
2018-06-09T04:30:57.519Z,98.94
2018-06-09T04:33:26.650Z,99.07
2018-06-09T04:35:55.755Z,98.89
2018-06-09T04:38:24.862Z,98.42
2018-06-09T04:40:54.012Z,97.22
2018-06-09T04:43:23.124Z,97.09
2018-06-09T04:45:52.426Z,97.43
2018-06-09T04:48:21.871Z,97.57
2018-06-09T04:50:51.131Z,96.98
2018-06-09T04:53:20.283Z,97.20
2018-06-09T04:55:49.427Z,97.26
2018-06-09T04:58:18.565Z,97.15
2018-06-09T05:00:47.716Z,96.52
2018-06-09T05:03:16.970Z,96.71
2018-06-09T05:05:46.105Z,96.70
2018-06-09T05:08:15.179Z,95.73
2018-06-09T05:10:44.407Z,95.58
2018-06-09T05:13:13.606Z,94.72
2018-06-09T05:15:42.789Z,94.99
2018-06-09T05:18:11.920Z,94.81
2018-06-09T05:20:41.046Z,93.69
2018-06-09T05:23:10.175Z,94.02
2018-06-09T05:25:39.400Z,93.65
2018-06-09T05:28:08.811Z,93.91
2018-06-09T05:30:37.899Z,93.89
2018-06-09T05:33:07.016Z,93.21
2018-06-09T05:35:36.170Z,92.67
2018-06-09T05:38:05.343Z,92.89
2018-06-09T05:40:34.508Z,93.30
2018-06-09T05:43:03.899Z,92.93
2018-06-09T05:45:33.062Z,93.24
2018-06-09T05:48:02.208Z,93.16
2018-06-09T05:50:31.468Z,93.01
2018-06-09T05:53:00.624Z,93.60
2018-06-09T05:55:29.753Z,93.02
2018-06-09T05:57:58.895Z,93.31
2018-06-09T06:00:28.023Z,92.68
2018-06-09T06:02:57.294Z,92.55
2018-06-09T06:05:26.423Z,92.20
2018-06-09T06:07:55.549Z,89.75
2018-06-09T06:10:24.652Z,90.24
2018-06-09T06:12:53.808Z,90.76
2018-06-09T06:15:23.004Z,88.97
2018-06-09T06:17:52.140Z,87.77
2018-06-09T06:20:21.499Z,86.67
2018-06-09T06:22:50.763Z,87.07
2018-06-09T06:25:19.909Z,87.23
2018-06-09T06:27:49.064Z,87.13
2018-06-09T06:30:18.209Z,85.56
2018-06-09T06:32:47.337Z,84.31
2018-06-09T06:35:16.444Z,86.22
2018-06-09T06:37:45.599Z,84.85
2018-06-09T06:40:14.761Z,84.02
2018-06-09T06:42:44.049Z,84.32
2018-06-09T06:45:13.461Z,83.39
2018-06-09T06:47:42.631Z,82.30
2018-06-09T06:50:11.745Z,83.27
2018-06-09T06:52:40.870Z,81.75
2018-06-09T06:55:10.039Z,82.64
2018-06-09T06:57:39.182Z,82.81
2018-06-09T07:00:08.307Z,81.83
2018-06-09T07:02:37.439Z,81.42
2018-06-09T07:05:06.591Z,82.45
2018-06-09T07:07:35.911Z,81.13
2018-06-09T07:10:05.030Z,82.10
2018-06-09T07:12:34.215Z,81.38
2018-06-09T07:15:03.363Z,80.33
2018-06-09T07:17:32.624Z,79.79
2018-06-09T07:20:01.733Z,78.28
2018-06-09T07:22:30.915Z,78.47
2018-06-09T07:25:00.101Z,79.24
2018-06-09T07:27:29.210Z,78.16
2018-06-09T07:29:58.401Z,78.09
2018-06-09T07:32:27.571Z,76.87
2018-06-09T07:34:56.689Z,77.67
2018-06-09T07:37:25.816Z,77.26
2018-06-09T07:39:55.030Z,76.10
2018-06-09T07:42:24.212Z,76.86
2018-06-09T07:44:53.378Z,74.51
2018-06-09T07:47:23.044Z,74.13
2018-06-09T07:49:52.119Z,73.49
2018-06-09T07:52:21.257Z,73.95
2018-06-09T07:54:50.327Z,74.03
2018-06-09T07:57:19.447Z,73.45
2018-06-09T07:59:48.602Z,74.69
2018-06-09T08:02:17.731Z,74.91
2018-06-09T08:04:46.864Z,74.73
2018-06-09T08:07:16.058Z,75.12
2018-06-09T08:09:45.251Z,74.54
2018-06-09T08:12:14.434Z,74.75
2018-06-09T08:14:43.550Z,74.88
2018-06-09T08:17:12.676Z,74.67
2018-06-09T08:19:41.775Z,74.87
2018-06-09T08:22:10.951Z,75.10
2018-06-09T08:24:40.224Z,75.85
2018-06-09T08:27:09.389Z,75.70
2018-06-09T08:29:38.544Z,75.87
2018-06-09T08:32:07.704Z,75.55
2018-06-09T08:34:36.844Z,75.62
2018-06-09T08:37:06.007Z,75.20
2018-06-09T08:39:35.166Z,74.50
2018-06-09T08:42:04.343Z,76.27
2018-06-09T08:44:33.469Z,75.81
2018-06-09T08:47:02.662Z,75.62
2018-06-09T08:49:31.891Z,74.84
2018-06-09T08:52:01.112Z,75.00
2018-06-09T08:54:31.088Z,74.87
2018-06-09T08:57:00.333Z,74.39
2018-06-09T08:59:29.514Z,74.40
2018-06-09T09:01:58.667Z,74.10
2018-06-09T09:04:27.779Z,73.57
2018-06-09T09:06:56.947Z,72.81
2018-06-09T09:09:26.137Z,72.04
2018-06-09T09:11:55.330Z,71.44
2018-06-09T09:14:24.452Z,71.79
2018-06-09T09:16:53.616Z,71.04
2018-06-09T09:19:22.908Z,70.56
2018-06-09T09:21:52.083Z,69.29
2018-06-09T09:24:21.377Z,69.42
2018-06-09T09:26:50.536Z,68.34
2018-06-09T09:29:19.946Z,68.75
2018-06-09T09:31:49.084Z,68.14
2018-06-09T09:34:18.203Z,68.87
2018-06-09T09:36:47.485Z,67.29
2018-06-09T09:39:16.790Z,66.75
2018-06-09T09:41:45.989Z,68.17
2018-06-09T09:44:15.235Z,67.12
2018-06-09T09:46:44.329Z,68.16
2018-06-09T09:49:13.499Z,66.60
2018-06-09T09:51:42.653Z,65.54
2018-06-09T09:54:11.789Z,66.28
2018-06-09T09:56:40.952Z,66.27
2018-06-09T09:59:10.062Z,65.46
2018-06-09T10:01:39.179Z,64.23
2018-06-09T10:04:08.373Z,63.11
2018-06-09T10:06:37.469Z,62.50
2018-06-09T10:09:08.434Z,62.98
2018-06-09T10:11:37.587Z,60.17
2018-06-09T10:14:06.827Z,59.81
2018-06-09T10:16:36.059Z,60.17
2018-06-09T10:19:05.353Z,59.41
2018-06-09T10:21:34.493Z,59.27
2018-06-09T10:24:03.696Z,59.99
2018-06-09T10:26:32.815Z,59.94
2018-06-09T10:29:01.983Z,59.18
2018-06-09T10:31:31.136Z,61.70
2018-06-09T10:34:00.272Z,60.87
2018-06-09T10:36:29.482Z,62.62
2018-06-09T10:38:58.600Z,62.61
2018-06-09T10:41:27.772Z,58.56
2018-06-09T10:43:56.898Z,59.94
2018-06-09T10:46:25.986Z,61.52
2018-06-09T10:48:55.119Z,60.97
2018-06-09T10:51:24.233Z,61.09
2018-06-09T10:53:53.383Z,61.21
2018-06-09T10:56:22.518Z,60.93
2018-06-09T10:58:51.689Z,60.17
2018-06-09T11:01:20.809Z,61.40
2018-06-09T11:03:49.948Z,61.14
2018-06-09T11:06:19.297Z,61.24
2018-06-09T11:08:48.440Z,61.17
2018-06-09T11:11:17.623Z,62.10
2018-06-09T11:13:46.759Z,62.08
2018-06-09T11:16:15.934Z,61.98
2018-06-09T11:18:45.128Z,61.54
2018-06-09T11:21:14.256Z,60.55
2018-06-09T11:23:43.397Z,60.76
2018-06-09T11:26:12.573Z,60.72
2018-06-09T11:28:41.672Z,61.07
2018-06-09T11:31:10.844Z,60.99
2018-06-09T11:33:39.942Z,60.34
2018-06-09T11:36:09.094Z,59.45
2018-06-09T11:38:38.261Z,59.49
2018-06-09T11:41:07.359Z,58.29
2018-06-09T11:43:36.469Z,58.14
2018-06-09T11:46:05.636Z,57.37
2018-06-09T11:48:34.759Z,57.29
2018-06-09T11:51:03.936Z,55.68
2018-06-09T11:53:33.095Z,54.90
2018-06-09T11:56:02.222Z,52.87
2018-06-09T11:58:31.330Z,53.07
2018-06-09T12:01:00.582Z,51.31
2018-06-09T12:03:29.706Z,52.75
2018-06-09T12:05:58.823Z,47.86
2018-06-09T12:08:27.965Z,47.98
2018-06-09T12:10:57.118Z,49.24
2018-06-09T12:13:26.297Z,48.32
2018-06-09T12:15:55.378Z,46.51
2018-06-09T12:18:24.510Z,47.67
2018-06-09T12:20:53.727Z,45.89
2018-06-09T12:23:22.820Z,45.73
2018-06-09T12:25:51.925Z,45.63
2018-06-09T12:28:21.169Z,46.83
2018-06-09T12:30:50.324Z,45.17
2018-06-09T12:33:19.443Z,45.72
2018-06-09T12:35:48.603Z,46.52
2018-06-09T12:38:17.760Z,47.70
2018-06-09T12:40:46.896Z,46.04
2018-06-09T12:43:16.021Z,46.25
2018-06-09T12:45:45.149Z,45.41
2018-06-09T12:48:14.267Z,44.09
2018-06-09T12:50:43.440Z,43.93
2018-06-09T12:53:12.550Z,43.13
2018-06-09T12:55:41.701Z,43.24
2018-06-09T12:58:11.035Z,43.04
2018-06-09T13:00:40.189Z,42.33
2018-06-09T13:03:09.657Z,41.97
2018-06-09T13:05:38.827Z,42.93
2018-06-09T13:08:07.968Z,42.09
2018-06-09T13:10:37.128Z,42.32
2018-06-09T13:13:06.255Z,42.92
2018-06-09T13:15:35.373Z,42.74
2018-06-09T13:18:04.563Z,42.69
2018-06-09T13:20:33.706Z,43.07
2018-06-09T13:23:02.862Z,42.12
2018-06-09T13:25:31.984Z,38.83
2018-06-09T13:28:01.570Z,39.70
2018-06-09T13:30:30.683Z,40.21
2018-06-09T13:32:59.880Z,39.77
2018-06-09T13:35:28.995Z,40.22
2018-06-09T13:37:58.157Z,38.79
2018-06-09T13:40:27.296Z,38.17
2018-06-09T13:42:56.370Z,36.38
2018-06-09T13:45:25.505Z,36.48
2018-06-09T13:47:54.626Z,36.27
2018-06-09T13:50:23.738Z,36.74
2018-06-09T13:52:52.876Z,36.93
2018-06-09T13:55:22.034Z,38.44
2018-06-09T13:57:51.107Z,37.83
2018-06-09T14:00:20.269Z,39.03
2018-06-09T14:02:49.433Z,39.19
2018-06-09T14:05:18.652Z,40.06
2018-06-09T14:07:47.792Z,40.73
2018-06-09T14:10:16.928Z,41.32
2018-06-09T14:12:46.066Z,42.35
2018-06-09T14:15:15.183Z,42.04
2018-06-09T14:17:44.319Z,39.77
2018-06-09T14:20:13.489Z,39.43
2018-06-09T14:22:42.569Z,39.24
2018-06-09T14:25:11.721Z,40.56
2018-06-09T14:27:40.815Z,41.75
2018-06-09T14:30:09.998Z,41.27
2018-06-09T14:32:39.132Z,42.65
2018-06-09T14:35:08.278Z,42.57
2018-06-09T14:37:37.373Z,42.43
2018-06-09T14:40:06.533Z,42.41
2018-06-09T14:42:35.796Z,42.27
2018-06-09T14:45:05.035Z,42.28
2018-06-09T14:47:34.173Z,43.43
2018-06-09T14:50:03.354Z,43.89
2018-06-09T14:52:32.509Z,43.33
2018-06-09T14:55:01.622Z,42.44
2018-06-09T14:57:30.829Z,42.91
2018-06-09T14:59:59.968Z,43.82
2018-06-09T15:02:29.116Z,46.30
2018-06-09T15:04:58.255Z,45.16
2018-06-09T15:07:27.359Z,43.94
2018-06-09T15:09:56.471Z,43.56
2018-06-09T15:12:25.577Z,41.67
2018-06-09T15:14:54.674Z,41.82
2018-06-09T15:17:23.825Z,42.05
2018-06-09T15:19:52.954Z,40.81
2018-06-09T15:22:22.097Z,41.86
2018-06-09T15:24:51.261Z,42.05
2018-06-09T15:27:20.386Z,42.54
2018-06-09T15:29:49.512Z,42.35
2018-06-09T15:32:18.602Z,42.72
2018-06-09T15:34:47.711Z,42.37
2018-06-09T15:37:16.809Z,43.34
2018-06-09T15:39:45.929Z,42.50
2018-06-09T15:42:15.055Z,43.55
2018-06-09T15:44:44.176Z,43.21
2018-06-09T15:47:13.325Z,43.18
2018-06-09T15:49:42.492Z,42.41
2018-06-09T15:52:11.620Z,42.87
2018-06-09T15:54:40.745Z,43.91
2018-06-09T15:57:09.819Z,44.62
2018-06-09T15:59:38.978Z,44.28
2018-06-09T16:02:08.138Z,44.75
2018-06-09T16:04:37.275Z,44.44
2018-06-09T16:07:06.391Z,44.75
2018-06-09T16:09:35.515Z,46.09
2018-06-09T16:12:04.749Z,46.56
2018-06-09T16:14:33.819Z,47.27
2018-06-09T16:17:02.984Z,47.30
2018-06-09T16:19:32.125Z,47.21
2018-06-09T16:22:01.212Z,47.87
2018-06-09T16:24:30.368Z,48.04
2018-06-09T16:26:59.444Z,47.90
2018-06-09T16:29:28.570Z,48.34
2018-06-09T16:31:57.730Z,48.84
2018-06-09T16:34:26.886Z,49.47
2018-06-09T16:36:56.118Z,49.45
2018-06-09T16:39:25.253Z,49.41
2018-06-09T16:41:55.101Z,50.07
2018-06-09T16:44:24.289Z,50.55
2018-06-09T16:46:53.427Z,50.40
2018-06-09T16:49:22.590Z,50.96
2018-06-09T16:51:51.736Z,51.43
2018-06-09T16:54:20.913Z,51.46
2018-06-09T16:56:50.085Z,51.91
2018-06-09T16:59:19.212Z,51.22
2018-06-09T17:01:48.346Z,51.46
2018-06-09T17:04:17.437Z,51.02
2018-06-09T17:06:46.640Z,52.20
2018-06-09T17:09:15.763Z,51.83
2018-06-09T17:11:44.887Z,52.04
2018-06-09T17:14:14.040Z,52.60
2018-06-09T17:16:43.135Z,52.81
2018-06-09T17:19:12.245Z,53.15
2018-06-09T17:21:41.366Z,52.64
2018-06-09T17:24:10.462Z,53.26
2018-06-09T17:26:39.598Z,53.81
2018-06-09T17:29:08.791Z,53.51
2018-06-09T17:31:37.885Z,54.47
2018-06-09T17:34:07.155Z,54.28
2018-06-09T17:36:36.289Z,54.66
2018-06-09T17:39:07.762Z,54.46
2018-06-09T17:41:36.926Z,54.07
2018-06-09T17:44:06.087Z,54.13
2018-06-09T17:46:35.177Z,54.96
2018-06-09T17:49:10.940Z,54.71
2018-06-09T17:51:40.076Z,55.58
2018-06-09T17:54:09.235Z,56.20
2018-06-09T17:56:38.374Z,55.75
2018-06-09T17:59:07.632Z,56.26
2018-06-09T18:01:36.752Z,55.54
2018-06-09T18:04:05.928Z,56.05
2018-06-09T18:06:35.062Z,55.77
2018-06-09T18:09:06.405Z,56.04
2018-06-09T18:11:35.557Z,55.93
2018-06-09T18:14:04.711Z,57.02
2018-06-09T18:16:34.038Z,57.42
2018-06-09T18:19:03.201Z,57.28
2018-06-09T18:21:32.398Z,57.25
2018-06-09T18:24:01.603Z,57.96
2018-06-09T18:26:30.759Z,57.84
2018-06-09T18:28:59.927Z,57.79
2018-06-09T18:31:29.059Z,58.02
2018-06-09T18:33:58.268Z,58.67
2018-06-09T18:36:27.413Z,58.22
2018-06-09T18:38:56.659Z,58.55
2018-06-09T18:41:25.810Z,59.18
2018-06-09T18:43:55.426Z,59.15
2018-06-09T18:46:24.804Z,59.76
2018-06-09T18:48:54.434Z,59.75
2018-06-09T18:51:23.643Z,59.37
2018-06-09T18:53:52.793Z,59.97
2018-06-09T18:56:21.934Z,59.96
2018-06-09T18:58:51.172Z,60.11
2018-06-09T19:01:20.261Z,60.77
2018-06-09T19:03:49.370Z,60.22
2018-06-09T19:06:18.533Z,60.57
2018-06-09T19:08:47.645Z,60.67
2018-06-09T19:11:16.829Z,60.58
2018-06-09T19:13:45.907Z,60.73
2018-06-09T19:16:15.096Z,61.20
2018-06-09T19:18:44.285Z,61.06
2018-06-09T19:21:13.481Z,60.66
2018-06-09T19:23:42.671Z,60.75
2018-06-09T19:26:11.944Z,60.55
2018-06-09T19:28:41.183Z,60.17
2018-06-09T19:31:10.344Z,60.30
2018-06-09T19:33:39.518Z,61.18
2018-06-09T19:36:08.693Z,60.80
2018-06-09T19:38:37.842Z,61.25
2018-06-09T19:41:06.988Z,61.76
2018-06-09T19:43:36.164Z,61.97
2018-06-09T19:46:05.343Z,62.26
2018-06-09T19:48:41.009Z,62.95
2018-06-09T19:51:11.054Z,62.38
2018-06-09T19:53:40.162Z,63.15
2018-06-09T19:56:09.311Z,62.89
2018-06-09T19:58:38.375Z,62.62
2018-06-09T20:01:07.531Z,62.92
2018-06-09T20:03:36.728Z,63.66
2018-06-09T20:06:05.874Z,63.32
2018-06-09T20:08:35.090Z,63.71
2018-06-09T20:11:04.272Z,63.40
2018-06-09T20:13:33.408Z,63.99
2018-06-09T20:16:02.524Z,63.27
2018-06-09T20:18:31.701Z,64.21
2018-06-09T20:21:00.846Z,64.44
2018-06-09T20:23:30.004Z,64.14
2018-06-09T20:26:03.677Z,64.65
2018-06-09T20:28:33.294Z,64.72
2018-06-09T20:31:02.607Z,65.06
2018-06-09T20:33:31.810Z,64.74
2018-06-09T20:36:00.939Z,65.09
2018-06-09T20:38:30.066Z,65.37
2018-06-09T20:40:59.268Z,64.93
2018-06-09T20:43:28.419Z,65.35
2018-06-09T20:45:57.568Z,65.24
2018-06-09T20:48:26.789Z,64.99
2018-06-09T20:50:55.922Z,64.94
2018-06-09T20:53:25.112Z,65.66
2018-06-09T20:55:54.287Z,66.24
2018-06-09T20:58:24.020Z,65.98
2018-06-09T21:00:53.223Z,65.80
2018-06-09T21:03:22.303Z,65.88
2018-06-09T21:05:51.492Z,66.23
2018-06-09T21:08:20.572Z,66.52
2018-06-09T21:10:49.676Z,67.21
2018-06-09T21:13:18.879Z,66.87
2018-06-09T21:15:48.025Z,66.99
2018-06-09T21:18:17.168Z,67.62
2018-06-09T21:20:46.346Z,67.45
2018-06-09T21:23:16.033Z,68.36
2018-06-09T21:25:45.432Z,68.27
2018-06-09T21:28:19.736Z,68.24
2018-06-09T21:30:54.055Z,69.24
2018-06-09T21:33:38.561Z,69.30
2018-06-09T21:36:13.978Z,69.81
2018-06-09T21:38:48.662Z,69.54
2018-06-09T21:41:22.776Z,69.65
2018-06-09T21:43:55.536Z,69.40
2018-06-09T21:46:29.788Z,69.45
2018-06-09T21:48:58.966Z,69.52
2018-06-09T21:51:28.112Z,70.05
2018-06-09T21:53:57.304Z,70.29
2018-06-09T21:56:26.502Z,70.04
2018-06-09T21:58:55.621Z,70.02
2018-06-09T22:01:24.807Z,70.37
2018-06-09T22:03:54.016Z,70.30
2018-06-09T22:06:23.298Z,72.36
2018-06-09T22:08:52.554Z,84.35
2018-06-09T22:11:21.753Z,94.77
2018-06-09T22:13:50.944Z,100.00
2018-06-09T22:16:20.108Z,95.57
2018-06-09T22:18:49.309Z,100.00
2018-06-09T22:21:18.470Z,99.34
2018-06-09T22:23:47.566Z,100.00
2018-06-09T22:26:16.969Z,100.00
2018-06-09T22:28:46.109Z,100.00
2018-06-09T22:31:15.289Z,100.00
2018-06-09T22:33:44.356Z,100.00
2018-06-09T22:36:13.419Z,100.00
2018-06-09T22:38:42.607Z,100.00
2018-06-09T22:41:11.683Z,100.00
2018-06-09T22:43:40.792Z,100.00
2018-06-09T22:46:09.916Z,100.00
2018-06-09T22:48:38.982Z,100.00
2018-06-09T22:51:08.176Z,100.00
2018-06-09T22:53:37.270Z,100.00
2018-06-09T22:56:06.397Z,100.00
2018-06-09T22:58:35.525Z,100.00
2018-06-09T23:01:04.608Z,100.00
2018-06-09T23:03:33.713Z,100.00
2018-06-09T23:06:02.791Z,100.00
2018-06-09T23:08:31.914Z,100.00
2018-06-09T23:11:01.018Z,100.00
2018-06-09T23:13:30.111Z,100.00
2018-06-09T23:15:59.204Z,100.00
2018-06-09T23:18:28.433Z,100.00
2018-06-09T23:20:57.565Z,100.00
2018-06-09T23:23:26.747Z,100.00
2018-06-09T23:25:55.903Z,100.00
2018-06-09T23:28:25.004Z,100.00
2018-06-09T23:30:54.205Z,100.00
2018-06-09T23:33:23.312Z,100.00
2018-06-09T23:35:52.382Z,100.00
2018-06-09T23:38:21.517Z,100.00
2018-06-09T23:40:50.607Z,100.00
2018-06-09T23:43:19.745Z,100.00
2018-06-09T23:45:48.814Z,100.00
2018-06-09T23:48:17.925Z,100.00
2018-06-09T23:50:47.037Z,100.00
2018-06-09T23:53:16.220Z,100.00
2018-06-09T23:55:45.347Z,100.00
2018-06-09T23:58:14.472Z,100.00
